sensor_id;sensor_type;location;lat;lon;timestamp;temperature;humidity
11320;DHT22;5715;48.234;14.320;2023-02-24T00:00:13;7.10;99.90
11320;DHT22;5715;48.234;14.320;2023-02-24T00:03:24;7.00;99.90
11320;DHT22;5715;48.234;14.320;2023-02-24T00:06:11;6.90;99.90
11320;DHT22;5715;48.234;14.320;2023-02-24T00:08:59;6.90;99.90
11320;DHT22;5715;48.234;14.320;2023-02-24T00:11:55;6.80;99.90
11320;DHT22;5715;48.234;14.320;2023-02-24T00:14:55;6.70;99.90
11320;DHT22;5715;48.234;14.320;2023-02-24T00:17:43;6.70;99.90
11320;DHT22;5715;48.234;14.320;2023-02-24T00:20:32;6.70;99.90
11320;DHT22;5715;48.234;14.320;2023-02-24T00:23:20;6.60;99.90
11320;DHT22;5715;48.234;14.320;2023-02-24T00:26:11;6.60;99.90
11320;DHT22;5715;48.234;14.320;2023-02-24T00:29:06;6.50;99.90
11320;DHT22;5715;48.234;14.320;2023-02-24T00:31:57;6.30;99.90
11320;DHT22;5715;48.234;14.320;2023-02-24T00:34:47;6.20;99.90
11320;DHT22;5715;48.234;14.320;2023-02-24T00:37:35;6.20;99.90
11320;DHT22;5715;48.234;14.320;2023-02-24T00:40:22;6.10;99.90
11320;DHT22;5715;48.234;14.320;2023-02-24T00:43:13;6.10;99.90
11320;DHT22;5715;48.234;14.320;2023-02-24T00:46:02;6.00;99.90
11320;DHT22;5715;48.234;14.320;2023-02-24T00:48:57;6.00;99.90
11320;DHT22;5715;48.234;14.320;2023-02-24T00:51:47;6.00;99.90
11320;DHT22;5715;48.234;14.320;2023-02-24T00:54:36;6.00;99.90
11320;DHT22;5715;48.234;14.320;2023-02-24T00:57:23;6.10;99.90
11320;DHT22;5715;48.234;14.320;2023-02-24T01:00:11;6.10;99.90
11320;DHT22;5715;48.234;14.320;2023-02-24T01:03:02;6.10;99.90
11320;DHT22;5715;48.234;14.320;2023-02-24T01:05:50;6.20;99.90
11320;DHT22;5715;48.234;14.320;2023-02-24T01:08:39;6.20;99.90
11320;DHT22;5715;48.234;14.320;2023-02-24T01:11:34;6.20;99.90
11320;DHT22;5715;48.234;14.320;2023-02-24T01:14:45;6.20;99.90
11320;DHT22;5715;48.234;14.320;2023-02-24T01:17:35;6.30;99.90
11320;DHT22;5715;48.234;14.320;2023-02-24T01:20:24;6.30;99.90
11320;DHT22;5715;48.234;14.320;2023-02-24T01:23:11;6.30;99.90
11320;DHT22;5715;48.234;14.320;2023-02-24T01:25:59;6.40;99.90
11320;DHT22;5715;48.234;14.320;2023-02-24T01:28:47;6.40;99.90
11320;DHT22;5715;48.234;14.320;2023-02-24T01:31:38;6.40;99.90
11320;DHT22;5715;48.234;14.320;2023-02-24T01:34:29;6.40;99.90
11320;DHT22;5715;48.234;14.320;2023-02-24T01:37:17;6.40;99.90
11320;DHT22;5715;48.234;14.320;2023-02-24T01:40:09;6.40;99.90
11320;DHT22;5715;48.234;14.320;2023-02-24T01:42:58;6.40;99.90
11320;DHT22;5715;48.234;14.320;2023-02-24T01:45:45;6.40;99.90
11320;DHT22;5715;48.234;14.320;2023-02-24T01:48:37;6.40;99.90
11320;DHT22;5715;48.234;14.320;2023-02-24T01:51:29;6.40;99.90
11320;DHT22;5715;48.234;14.320;2023-02-24T01:54:25;6.40;99.90
11320;DHT22;5715;48.234;14.320;2023-02-24T01:57:20;6.40;99.90
11320;DHT22;5715;48.234;14.320;2023-02-24T02:00:11;6.40;99.90
11320;DHT22;5715;48.234;14.320;2023-02-24T02:06:19;6.30;99.90
11320;DHT22;5715;48.234;14.320;2023-02-24T02:09:08;6.30;99.90
11320;DHT22;5715;48.234;14.320;2023-02-24T02:11:56;6.30;99.90
11320;DHT22;5715;48.234;14.320;2023-02-24T02:14:47;6.20;99.90
11320;DHT22;5715;48.234;14.320;2023-02-24T02:30:46;6.40;99.90
11320;DHT22;5715;48.234;14.320;2023-02-24T02:37:05;6.50;99.90
11320;DHT22;5715;48.234;14.320;2023-02-24T02:40:38;6.50;99.90
11320;DHT22;5715;48.234;14.320;2023-02-24T02:44:12;6.50;99.90
11320;DHT22;5715;48.234;14.320;2023-02-24T02:48:00;6.50;99.90
11320;DHT22;5715;48.234;14.320;2023-02-24T02:56:43;6.30;99.90
11320;DHT22;5715;48.234;14.320;2023-02-24T02:59:42;6.30;99.90
11320;DHT22;5715;48.234;14.320;2023-02-24T03:02:41;6.30;99.90
11320;DHT22;5715;48.234;14.320;2023-02-24T03:05:39;6.30;99.90
11320;DHT22;5715;48.234;14.320;2023-02-24T03:08:36;6.30;99.90
11320;DHT22;5715;48.234;14.320;2023-02-24T03:11:26;6.30;99.90
11320;DHT22;5715;48.234;14.320;2023-02-24T03:14:16;6.20;99.90
11320;DHT22;5715;48.234;14.320;2023-02-24T03:17:10;6.30;99.90
11320;DHT22;5715;48.234;14.320;2023-02-24T03:23:42;6.20;99.90
11320;DHT22;5715;48.234;14.320;2023-02-24T03:26:41;6.20;99.90
11320;DHT22;5715;48.234;14.320;2023-02-24T03:29:50;6.20;99.90
11320;DHT22;5715;48.234;14.320;2023-02-24T03:32:49;6.20;99.90
11320;DHT22;5715;48.234;14.320;2023-02-24T03:35:49;6.30;99.90
11320;DHT22;5715;48.234;14.320;2023-02-24T03:38:41;6.20;99.90
11320;DHT22;5715;48.234;14.320;2023-02-24T03:41:41;6.20;99.90
11320;DHT22;5715;48.234;14.320;2023-02-24T03:44:33;6.20;99.90
11320;DHT22;5715;48.234;14.320;2023-02-24T03:47:21;6.20;99.90
11320;DHT22;5715;48.234;14.320;2023-02-24T03:50:20;6.20;99.90
11320;DHT22;5715;48.234;14.320;2023-02-24T03:59:54;6.20;99.90
11320;DHT22;5715;48.234;14.320;2023-02-24T04:06:08;6.30;99.90
11320;DHT22;5715;48.234;14.320;2023-02-24T04:12:34;6.30;99.90
11320;DHT22;5715;48.234;14.320;2023-02-24T04:15:32;6.30;99.90
11320;DHT22;5715;48.234;14.320;2023-02-24T04:18:31;6.30;99.90
11320;DHT22;5715;48.234;14.320;2023-02-24T04:21:19;6.20;99.90
11320;DHT22;5715;48.234;14.320;2023-02-24T04:24:10;6.10;99.90
11320;DHT22;5715;48.234;14.320;2023-02-24T04:27:04;6.00;99.90
11320;DHT22;5715;48.234;14.320;2023-02-24T04:29:57;5.90;99.90
11320;DHT22;5715;48.234;14.320;2023-02-24T04:32:50;5.80;99.90
11320;DHT22;5715;48.234;14.320;2023-02-24T04:35:38;5.70;99.90
11320;DHT22;5715;48.234;14.320;2023-02-24T04:38:26;5.70;99.90
11320;DHT22;5715;48.234;14.320;2023-02-24T04:41:14;5.70;99.90
11320;DHT22;5715;48.234;14.320;2023-02-24T04:44:09;5.60;99.90
11320;DHT22;5715;48.234;14.320;2023-02-24T04:46:58;5.50;99.90
11320;DHT22;5715;48.234;14.320;2023-02-24T04:49:46;5.40;99.90
11320;DHT22;5715;48.234;14.320;2023-02-24T04:52:34;5.40;99.90
11320;DHT22;5715;48.234;14.320;2023-02-24T04:55:23;5.30;99.90
11320;DHT22;5715;48.234;14.320;2023-02-24T04:58:17;5.30;99.90
11320;DHT22;5715;48.234;14.320;2023-02-24T05:01:09;5.20;99.90
11320;DHT22;5715;48.234;14.320;2023-02-24T05:03:57;5.20;99.90
11320;DHT22;5715;48.234;14.320;2023-02-24T05:06:46;5.20;99.90
11320;DHT22;5715;48.234;14.320;2023-02-24T05:09:34;5.10;99.90
11320;DHT22;5715;48.234;14.320;2023-02-24T05:12:22;5.20;99.90
11320;DHT22;5715;48.234;14.320;2023-02-24T05:15:10;5.20;99.90
11320;DHT22;5715;48.234;14.320;2023-02-24T05:18:04;5.30;99.90
11320;DHT22;5715;48.234;14.320;2023-02-24T05:20:55;5.30;99.90
11320;DHT22;5715;48.234;14.320;2023-02-24T05:24:02;5.30;99.90
11320;DHT22;5715;48.234;14.320;2023-02-24T05:26:53;5.30;99.90
11320;DHT22;5715;48.234;14.320;2023-02-24T05:29:45;5.20;99.90
11320;DHT22;5715;48.234;14.320;2023-02-24T05:32:33;5.20;99.90
11320;DHT22;5715;48.234;14.320;2023-02-24T05:35:21;5.20;99.90
11320;DHT22;5715;48.234;14.320;2023-02-24T05:38:09;5.20;99.90
11320;DHT22;5715;48.234;14.320;2023-02-24T05:41:04;5.20;99.90
11320;DHT22;5715;48.234;14.320;2023-02-24T05:44:05;5.20;99.90
11320;DHT22;5715;48.234;14.320;2023-02-24T05:46:56;5.30;99.90
11320;DHT22;5715;48.234;14.320;2023-02-24T05:49:47;5.30;99.90
11320;DHT22;5715;48.234;14.320;2023-02-24T05:52:38;5.30;99.90
11320;DHT22;5715;48.234;14.320;2023-02-24T05:55:25;5.40;99.90
11320;DHT22;5715;48.234;14.320;2023-02-24T05:58:13;5.50;99.90
11320;DHT22;5715;48.234;14.320;2023-02-24T06:01:09;5.50;99.90
11320;DHT22;5715;48.234;14.320;2023-02-24T06:04:07;5.50;99.90
11320;DHT22;5715;48.234;14.320;2023-02-24T06:06:55;5.50;99.90
11320;DHT22;5715;48.234;14.320;2023-02-24T06:09:48;5.50;99.90
11320;DHT22;5715;48.234;14.320;2023-02-24T06:12:40;5.50;99.90
11320;DHT22;5715;48.234;14.320;2023-02-24T06:15:32;5.50;99.90
11320;DHT22;5715;48.234;14.320;2023-02-24T06:18:20;5.60;99.90
11320;DHT22;5715;48.234;14.320;2023-02-24T06:21:08;5.60;99.90
11320;DHT22;5715;48.234;14.320;2023-02-24T06:23:59;5.70;99.90
11320;DHT22;5715;48.234;14.320;2023-02-24T06:26:47;5.70;99.90
11320;DHT22;5715;48.234;14.320;2023-02-24T06:29:36;5.70;99.90
11320;DHT22;5715;48.234;14.320;2023-02-24T06:32:25;5.80;99.90
11320;DHT22;5715;48.234;14.320;2023-02-24T06:35:14;5.90;99.90
11320;DHT22;5715;48.234;14.320;2023-02-24T06:38:02;5.90;99.90
11320;DHT22;5715;48.234;14.320;2023-02-24T06:40:50;6.00;99.90
11320;DHT22;5715;48.234;14.320;2023-02-24T06:43:40;6.10;99.90
11320;DHT22;5715;48.234;14.320;2023-02-24T06:46:30;6.20;99.90
11320;DHT22;5715;48.234;14.320;2023-02-24T06:49:18;6.30;99.90
11320;DHT22;5715;48.234;14.320;2023-02-24T06:52:06;6.40;99.90
11320;DHT22;5715;48.234;14.320;2023-02-24T06:54:54;6.50;99.90
11320;DHT22;5715;48.234;14.320;2023-02-24T06:57:42;6.60;99.90
11320;DHT22;5715;48.234;14.320;2023-02-24T07:00:32;6.60;99.90
11320;DHT22;5715;48.234;14.320;2023-02-24T07:03:27;6.70;99.90
11320;DHT22;5715;48.234;14.320;2023-02-24T07:06:28;6.80;99.90
11320;DHT22;5715;48.234;14.320;2023-02-24T07:09:26;6.90;99.90
11320;DHT22;5715;48.234;14.320;2023-02-24T07:12:14;7.00;99.90
11320;DHT22;5715;48.234;14.320;2023-02-24T07:15:07;7.10;99.90
11320;DHT22;5715;48.234;14.320;2023-02-24T07:17:56;7.10;99.90
11320;DHT22;5715;48.234;14.320;2023-02-24T07:20:44;7.20;99.90
11320;DHT22;5715;48.234;14.320;2023-02-24T07:23:33;7.30;99.90
11320;DHT22;5715;48.234;14.320;2023-02-24T07:26:26;7.40;99.90
11320;DHT22;5715;48.234;14.320;2023-02-24T07:29:16;7.50;99.90
11320;DHT22;5715;48.234;14.320;2023-02-24T07:32:07;7.60;99.90
11320;DHT22;5715;48.234;14.320;2023-02-24T07:34:55;7.80;99.90
11320;DHT22;5715;48.234;14.320;2023-02-24T07:37:43;8.00;99.90
11320;DHT22;5715;48.234;14.320;2023-02-24T07:40:32;8.00;99.90
11320;DHT22;5715;48.234;14.320;2023-02-24T07:43:20;8.00;99.90
11320;DHT22;5715;48.234;14.320;2023-02-24T07:46:13;8.00;99.90
11320;DHT22;5715;48.234;14.320;2023-02-24T07:49:03;8.00;99.90
11320;DHT22;5715;48.234;14.320;2023-02-24T07:51:51;8.00;99.90
11320;DHT22;5715;48.234;14.320;2023-02-24T07:54:44;8.20;99.90
11320;DHT22;5715;48.234;14.320;2023-02-24T07:57:31;8.40;99.90
11320;DHT22;5715;48.234;14.320;2023-02-24T08:00:19;8.50;99.90
11320;DHT22;5715;48.234;14.320;2023-02-24T08:03:14;8.70;99.90
11320;DHT22;5715;48.234;14.320;2023-02-24T08:06:02;9.00;99.90
11320;DHT22;5715;48.234;14.320;2023-02-24T08:09:02;9.10;99.90
11320;DHT22;5715;48.234;14.320;2023-02-24T08:12:06;9.20;99.90
11320;DHT22;5715;48.234;14.320;2023-02-24T08:14:55;9.20;99.90
11320;DHT22;5715;48.234;14.320;2023-02-24T08:17:46;9.30;99.90
11320;DHT22;5715;48.234;14.320;2023-02-24T08:20:33;9.30;99.90
11320;DHT22;5715;48.234;14.320;2023-02-24T08:23:50;9.40;99.90
11320;DHT22;5715;48.234;14.320;2023-02-24T08:26:39;9.50;99.90
11320;DHT22;5715;48.234;14.320;2023-02-24T08:29:32;9.70;99.90
11320;DHT22;5715;48.234;14.320;2023-02-24T08:32:44;9.70;99.90
11320;DHT22;5715;48.234;14.320;2023-02-24T08:35:36;9.70;99.90
11320;DHT22;5715;48.234;14.320;2023-02-24T08:38:34;9.60;99.90
11320;DHT22;5715;48.234;14.320;2023-02-24T08:41:26;9.50;99.90
11320;DHT22;5715;48.234;14.320;2023-02-24T08:44:31;9.70;99.90
11320;DHT22;5715;48.234;14.320;2023-02-24T08:47:21;9.80;99.90
11320;DHT22;5715;48.234;14.320;2023-02-24T08:50:17;9.90;99.90
11320;DHT22;5715;48.234;14.320;2023-02-24T08:53:07;10.00;99.90
11320;DHT22;5715;48.234;14.320;2023-02-24T08:55:58;10.20;99.90
11320;DHT22;5715;48.234;14.320;2023-02-24T08:58:57;10.40;99.90
11320;DHT22;5715;48.234;14.320;2023-02-24T09:01:52;10.50;99.90
11320;DHT22;5715;48.234;14.320;2023-02-24T09:05:02;10.50;99.90
11320;DHT22;5715;48.234;14.320;2023-02-24T09:07:53;10.60;99.90
11320;DHT22;5715;48.234;14.320;2023-02-24T09:10:42;10.60;99.90
11320;DHT22;5715;48.234;14.320;2023-02-24T09:13:37;10.70;99.90
11320;DHT22;5715;48.234;14.320;2023-02-24T09:16:37;10.70;99.90
11320;DHT22;5715;48.234;14.320;2023-02-24T09:22:32;11.00;99.90
11320;DHT22;5715;48.234;14.320;2023-02-24T09:25:39;11.10;99.90
11320;DHT22;5715;48.234;14.320;2023-02-24T09:28:27;11.10;99.90
11320;DHT22;5715;48.234;14.320;2023-02-24T09:31:20;11.20;99.90
11320;DHT22;5715;48.234;14.320;2023-02-24T09:34:27;11.30;99.90
11320;DHT22;5715;48.234;14.320;2023-02-24T09:37:16;11.30;99.90
11320;DHT22;5715;48.234;14.320;2023-02-24T09:40:13;11.30;99.90
11320;DHT22;5715;48.234;14.320;2023-02-24T09:43:12;11.50;99.90
11320;DHT22;5715;48.234;14.320;2023-02-24T09:46:07;11.50;99.90
11320;DHT22;5715;48.234;14.320;2023-02-24T09:49:16;11.50;99.90
11320;DHT22;5715;48.234;14.320;2023-02-24T09:52:17;11.50;99.90
11320;DHT22;5715;48.234;14.320;2023-02-24T10:02:17;11.70;99.90
11320;DHT22;5715;48.234;14.320;2023-02-24T10:05:31;11.90;99.90
11320;DHT22;5715;48.234;14.320;2023-02-24T10:08:39;11.80;99.90
11320;DHT22;5715;48.234;14.320;2023-02-24T10:11:30;11.90;99.90
11320;DHT22;5715;48.234;14.320;2023-02-24T10:14:28;11.90;99.90
11320;DHT22;5715;48.234;14.320;2023-02-24T10:17:29;11.90;99.90
11320;DHT22;5715;48.234;14.320;2023-02-24T10:20:34;12.00;99.90
11320;DHT22;5715;48.234;14.320;2023-02-24T10:24:06;12.10;99.90
11320;DHT22;5715;48.234;14.320;2023-02-24T10:27:13;12.00;99.90
11320;DHT22;5715;48.234;14.320;2023-02-24T10:30:22;12.10;99.90
11320;DHT22;5715;48.234;14.320;2023-02-24T10:33:19;12.30;99.90
11320;DHT22;5715;48.234;14.320;2023-02-24T10:36:20;12.40;99.90
11320;DHT22;5715;48.234;14.320;2023-02-24T10:39:23;12.30;99.90
11320;DHT22;5715;48.234;14.320;2023-02-24T10:42:22;12.30;99.90
11320;DHT22;5715;48.234;14.320;2023-02-24T10:45:14;12.30;99.90
11320;DHT22;5715;48.234;14.320;2023-02-24T10:48:17;12.20;99.90
11320;DHT22;5715;48.234;14.320;2023-02-24T10:51:31;12.30;99.90
11320;DHT22;5715;48.234;14.320;2023-02-24T10:54:26;12.20;99.90
11320;DHT22;5715;48.234;14.320;2023-02-24T10:57:31;12.10;99.90
11320;DHT22;5715;48.234;14.320;2023-02-24T11:00:44;11.90;99.90
11320;DHT22;5715;48.234;14.320;2023-02-24T11:04:15;12.00;99.90
11320;DHT22;5715;48.234;14.320;2023-02-24T11:07:31;12.20;99.90
11320;DHT22;5715;48.234;14.320;2023-02-24T11:10:42;12.20;99.90
11320;DHT22;5715;48.234;14.320;2023-02-24T11:13:49;12.20;99.90
11320;DHT22;5715;48.234;14.320;2023-02-24T11:16:56;12.30;99.90
11320;DHT22;5715;48.234;14.320;2023-02-24T11:20:10;12.50;99.90
11320;DHT22;5715;48.234;14.320;2023-02-24T11:23:17;12.60;99.90
11320;DHT22;5715;48.234;14.320;2023-02-24T11:26:35;12.70;99.90
11320;DHT22;5715;48.234;14.320;2023-02-24T11:29:45;12.90;99.90
11320;DHT22;5715;48.234;14.320;2023-02-24T11:33:06;12.60;99.90
11320;DHT22;5715;48.234;14.320;2023-02-24T11:36:11;12.40;99.90
11320;DHT22;5715;48.234;14.320;2023-02-24T11:42:42;12.40;99.90
11320;DHT22;5715;48.234;14.320;2023-02-24T11:48:42;12.60;99.90
11320;DHT22;5715;48.234;14.320;2023-02-24T11:51:43;12.60;99.90
11320;DHT22;5715;48.234;14.320;2023-02-24T11:54:39;12.50;99.90
11320;DHT22;5715;48.234;14.320;2023-02-24T11:57:38;12.60;99.90
11320;DHT22;5715;48.234;14.320;2023-02-24T12:00:34;12.50;99.90
11320;DHT22;5715;48.234;14.320;2023-02-24T12:03:39;12.60;99.90
11320;DHT22;5715;48.234;14.320;2023-02-24T12:09:59;12.70;99.90
11320;DHT22;5715;48.234;14.320;2023-02-24T12:13:21;12.80;99.90
11320;DHT22;5715;48.234;14.320;2023-02-24T12:16:24;12.90;99.90
11320;DHT22;5715;48.234;14.320;2023-02-24T12:26:16;12.70;99.90
11320;DHT22;5715;48.234;14.320;2023-02-24T12:29:29;12.40;99.90
11320;DHT22;5715;48.234;14.320;2023-02-24T12:33:19;12.30;99.90
11320;DHT22;5715;48.234;14.320;2023-02-24T12:39:40;12.00;99.90
11320;DHT22;5715;48.234;14.320;2023-02-24T12:43:07;12.10;99.90
11320;DHT22;5715;48.234;14.320;2023-02-24T12:46:34;12.20;99.90
11320;DHT22;5715;48.234;14.320;2023-02-24T12:49:35;12.40;99.90
11320;DHT22;5715;48.234;14.320;2023-02-24T13:03:21;12.30;99.90
11320;DHT22;5715;48.234;14.320;2023-02-24T13:09:55;12.40;99.90
11320;DHT22;5715;48.234;14.320;2023-02-24T13:13:12;12.40;99.90
11320;DHT22;5715;48.234;14.320;2023-02-24T13:16:09;12.30;99.90
11320;DHT22;5715;48.234;14.320;2023-02-24T13:25:10;12.20;99.90
11320;DHT22;5715;48.234;14.320;2023-02-24T13:28:22;12.20;99.90
11320;DHT22;5715;48.234;14.320;2023-02-24T13:31:12;12.30;99.90
11320;DHT22;5715;48.234;14.320;2023-02-24T13:34:26;12.20;99.90
11320;DHT22;5715;48.234;14.320;2023-02-24T13:37:34;12.30;99.90
11320;DHT22;5715;48.234;14.320;2023-02-24T13:40:24;12.30;99.90
11320;DHT22;5715;48.234;14.320;2023-02-24T13:43:23;12.40;99.90
11320;DHT22;5715;48.234;14.320;2023-02-24T13:46:16;12.50;99.90
11320;DHT22;5715;48.234;14.320;2023-02-24T13:52:54;12.50;99.90
11320;DHT22;5715;48.234;14.320;2023-02-24T14:02:19;12.90;99.90
11320;DHT22;5715;48.234;14.320;2023-02-24T14:05:18;12.80;99.90
11320;DHT22;5715;48.234;14.320;2023-02-24T14:08:42;12.90;99.90
11320;DHT22;5715;48.234;14.320;2023-02-24T14:11:37;13.00;99.90
11320;DHT22;5715;48.234;14.320;2023-02-24T14:14:25;13.00;99.90
11320;DHT22;5715;48.234;14.320;2023-02-24T14:17:35;13.10;99.90
11320;DHT22;5715;48.234;14.320;2023-02-24T14:20:24;13.10;99.90
11320;DHT22;5715;48.234;14.320;2023-02-24T14:26:13;13.30;99.90
11320;DHT22;5715;48.234;14.320;2023-02-24T14:29:06;13.50;99.90
11320;DHT22;5715;48.234;14.320;2023-02-24T14:31:57;13.50;99.90
11320;DHT22;5715;48.234;14.320;2023-02-24T14:34:46;13.60;99.90
11320;DHT22;5715;48.234;14.320;2023-02-24T14:37:34;13.60;99.90
11320;DHT22;5715;48.234;14.320;2023-02-24T14:40:23;13.60;99.90
11320;DHT22;5715;48.234;14.320;2023-02-24T14:43:13;13.50;99.90
11320;DHT22;5715;48.234;14.320;2023-02-24T14:46:04;13.10;99.90
11320;DHT22;5715;48.234;14.320;2023-02-24T14:48:54;12.90;99.90
11320;DHT22;5715;48.234;14.320;2023-02-24T14:51:42;12.80;99.90
11320;DHT22;5715;48.234;14.320;2023-02-24T14:54:54;12.70;99.90
11320;DHT22;5715;48.234;14.320;2023-02-24T14:58:18;12.60;99.90
11320;DHT22;5715;48.234;14.320;2023-02-24T15:01:42;12.60;99.90
11320;DHT22;5715;48.234;14.320;2023-02-24T15:04:36;12.50;99.90
11320;DHT22;5715;48.234;14.320;2023-02-24T15:07:29;12.50;99.90
11320;DHT22;5715;48.234;14.320;2023-02-24T15:10:23;12.50;99.90
11320;DHT22;5715;48.234;14.320;2023-02-24T15:13:40;12.50;99.90
11320;DHT22;5715;48.234;14.320;2023-02-24T15:16:46;12.50;99.90
11320;DHT22;5715;48.234;14.320;2023-02-24T15:19:40;12.50;99.90
11320;DHT22;5715;48.234;14.320;2023-02-24T15:22:47;12.50;99.90
11320;DHT22;5715;48.234;14.320;2023-02-24T15:25:44;12.40;99.90
11320;DHT22;5715;48.234;14.320;2023-02-24T15:28:35;12.30;99.90
11320;DHT22;5715;48.234;14.320;2023-02-24T15:31:23;12.20;99.90
11320;DHT22;5715;48.234;14.320;2023-02-24T15:34:17;12.00;99.90
11320;DHT22;5715;48.234;14.320;2023-02-24T15:37:26;11.90;99.90
11320;DHT22;5715;48.234;14.320;2023-02-24T15:40:21;11.80;99.90
11320;DHT22;5715;48.234;14.320;2023-02-24T15:46:39;11.80;99.90
11320;DHT22;5715;48.234;14.320;2023-02-24T15:49:27;11.70;99.90
11320;DHT22;5715;48.234;14.320;2023-02-24T15:52:21;11.70;99.90
11320;DHT22;5715;48.234;14.320;2023-02-24T15:55:16;11.60;99.90
11320;DHT22;5715;48.234;14.320;2023-02-24T15:58:15;11.50;99.90
11320;DHT22;5715;48.234;14.320;2023-02-24T16:01:04;11.40;99.90
11320;DHT22;5715;48.234;14.320;2023-02-24T16:03:51;11.20;99.90
11320;DHT22;5715;48.234;14.320;2023-02-24T16:06:40;11.10;99.90
11320;DHT22;5715;48.234;14.320;2023-02-24T16:09:41;11.00;99.90
11320;DHT22;5715;48.234;14.320;2023-02-24T16:12:38;10.90;99.90
11320;DHT22;5715;48.234;14.320;2023-02-24T16:15:40;10.90;99.90
11320;DHT22;5715;48.234;14.320;2023-02-24T16:18:31;10.80;99.90
11320;DHT22;5715;48.234;14.320;2023-02-24T16:21:19;10.70;99.90
11320;DHT22;5715;48.234;14.320;2023-02-24T16:24:07;10.60;99.90
11320;DHT22;5715;48.234;14.320;2023-02-24T16:26:54;10.50;99.90
11320;DHT22;5715;48.234;14.320;2023-02-24T16:29:43;10.40;99.90
11320;DHT22;5715;48.234;14.320;2023-02-24T16:32:30;10.30;99.90
11320;DHT22;5715;48.234;14.320;2023-02-24T16:35:18;10.20;99.90
11320;DHT22;5715;48.234;14.320;2023-02-24T16:38:15;10.20;99.90
11320;DHT22;5715;48.234;14.320;2023-02-24T16:41:04;10.00;99.90
11320;DHT22;5715;48.234;14.320;2023-02-24T16:43:52;10.00;99.90
11320;DHT22;5715;48.234;14.320;2023-02-24T16:46:40;9.90;99.90
11320;DHT22;5715;48.234;14.320;2023-02-24T16:49:31;9.90;99.90
11320;DHT22;5715;48.234;14.320;2023-02-24T16:52:19;9.70;99.90
11320;DHT22;5715;48.234;14.320;2023-02-24T16:55:16;9.60;99.90
11320;DHT22;5715;48.234;14.320;2023-02-24T16:58:04;9.50;99.90
11320;DHT22;5715;48.234;14.320;2023-02-24T17:00:55;9.50;99.90
11320;DHT22;5715;48.234;14.320;2023-02-24T17:03:50;9.40;99.90
11320;DHT22;5715;48.234;14.320;2023-02-24T17:06:42;9.40;99.90
11320;DHT22;5715;48.234;14.320;2023-02-24T17:09:30;9.30;99.90
11320;DHT22;5715;48.234;14.320;2023-02-24T17:12:20;9.30;99.90
11320;DHT22;5715;48.234;14.320;2023-02-24T17:15:21;9.30;99.90
11320;DHT22;5715;48.234;14.320;2023-02-24T17:18:10;9.30;99.90
11320;DHT22;5715;48.234;14.320;2023-02-24T17:20:58;9.30;99.90
11320;DHT22;5715;48.234;14.320;2023-02-24T17:23:46;9.20;99.90
11320;DHT22;5715;48.234;14.320;2023-02-24T17:26:34;9.20;99.90
11320;DHT22;5715;48.234;14.320;2023-02-24T17:29:22;9.10;99.90
11320;DHT22;5715;48.234;14.320;2023-02-24T17:32:10;9.10;99.90
11320;DHT22;5715;48.234;14.320;2023-02-24T17:34:58;9.10;99.90
11320;DHT22;5715;48.234;14.320;2023-02-24T17:37:46;9.00;99.90
11320;DHT22;5715;48.234;14.320;2023-02-24T17:40:34;9.00;99.90
11320;DHT22;5715;48.234;14.320;2023-02-24T17:43:27;9.00;99.90
11320;DHT22;5715;48.234;14.320;2023-02-24T17:46:15;8.90;99.90
11320;DHT22;5715;48.234;14.320;2023-02-24T17:49:03;8.90;99.90
11320;DHT22;5715;48.234;14.320;2023-02-24T17:51:51;8.90;99.90
11320;DHT22;5715;48.234;14.320;2023-02-24T17:54:38;8.90;99.90
11320;DHT22;5715;48.234;14.320;2023-02-24T17:57:26;8.90;99.90
11320;DHT22;5715;48.234;14.320;2023-02-24T18:00:16;8.90;99.90
11320;DHT22;5715;48.234;14.320;2023-02-24T18:03:04;8.90;99.90
11320;DHT22;5715;48.234;14.320;2023-02-24T18:06:04;8.90;99.90
11320;DHT22;5715;48.234;14.320;2023-02-24T18:08:53;8.90;99.90
11320;DHT22;5715;48.234;14.320;2023-02-24T18:11:41;8.90;99.90
11320;DHT22;5715;48.234;14.320;2023-02-24T18:14:32;8.90;99.90
11320;DHT22;5715;48.234;14.320;2023-02-24T18:17:19;8.90;99.90
11320;DHT22;5715;48.234;14.320;2023-02-24T18:20:08;8.90;99.90
11320;DHT22;5715;48.234;14.320;2023-02-24T18:22:58;8.90;99.90
11320;DHT22;5715;48.234;14.320;2023-02-24T18:25:45;8.90;99.90
11320;DHT22;5715;48.234;14.320;2023-02-24T18:28:33;8.90;99.90
11320;DHT22;5715;48.234;14.320;2023-02-24T18:31:23;8.90;99.90
11320;DHT22;5715;48.234;14.320;2023-02-24T18:34:12;8.90;99.90
11320;DHT22;5715;48.234;14.320;2023-02-24T18:37:00;8.80;99.90
11320;DHT22;5715;48.234;14.320;2023-02-24T18:39:48;8.80;99.90
11320;DHT22;5715;48.234;14.320;2023-02-24T18:42:37;8.80;99.90
11320;DHT22;5715;48.234;14.320;2023-02-24T18:45:24;8.80;99.90
11320;DHT22;5715;48.234;14.320;2023-02-24T18:48:12;8.80;99.90
11320;DHT22;5715;48.234;14.320;2023-02-24T18:51:00;8.90;99.90
11320;DHT22;5715;48.234;14.320;2023-02-24T18:53:48;8.90;99.90
11320;DHT22;5715;48.234;14.320;2023-02-24T18:56:39;8.80;99.90
11320;DHT22;5715;48.234;14.320;2023-02-24T18:59:27;8.80;99.90
11320;DHT22;5715;48.234;14.320;2023-02-24T19:02:15;8.80;99.90
11320;DHT22;5715;48.234;14.320;2023-02-24T19:05:03;8.70;99.90
11320;DHT22;5715;48.234;14.320;2023-02-24T19:07:51;8.70;99.90
11320;DHT22;5715;48.234;14.320;2023-02-24T19:10:39;8.70;99.90
11320;DHT22;5715;48.234;14.320;2023-02-24T19:13:26;8.70;99.90
11320;DHT22;5715;48.234;14.320;2023-02-24T19:16:15;8.70;99.90
11320;DHT22;5715;48.234;14.320;2023-02-24T19:19:04;8.60;99.90
11320;DHT22;5715;48.234;14.320;2023-02-24T19:21:52;8.60;99.90
11320;DHT22;5715;48.234;14.320;2023-02-24T19:24:40;8.60;99.90
11320;DHT22;5715;48.234;14.320;2023-02-24T19:27:27;8.60;99.90
11320;DHT22;5715;48.234;14.320;2023-02-24T19:30:15;8.60;99.90
11320;DHT22;5715;48.234;14.320;2023-02-24T19:33:03;8.50;99.90
11320;DHT22;5715;48.234;14.320;2023-02-24T19:35:51;8.50;99.90
11320;DHT22;5715;48.234;14.320;2023-02-24T19:38:45;8.50;99.90
11320;DHT22;5715;48.234;14.320;2023-02-24T19:41:33;8.50;99.90
11320;DHT22;5715;48.234;14.320;2023-02-24T19:44:22;8.50;99.90
11320;DHT22;5715;48.234;14.320;2023-02-24T19:47:10;8.50;99.90
11320;DHT22;5715;48.234;14.320;2023-02-24T19:49:58;8.50;99.90
11320;DHT22;5715;48.234;14.320;2023-02-24T19:52:45;8.50;99.90
11320;DHT22;5715;48.234;14.320;2023-02-24T19:55:33;8.50;99.90
11320;DHT22;5715;48.234;14.320;2023-02-24T19:58:21;8.50;99.90
11320;DHT22;5715;48.234;14.320;2023-02-24T20:01:11;8.50;99.90
11320;DHT22;5715;48.234;14.320;2023-02-24T20:04:01;8.50;99.90
11320;DHT22;5715;48.234;14.320;2023-02-24T20:06:50;8.40;99.90
11320;DHT22;5715;48.234;14.320;2023-02-24T20:09:40;8.40;99.90
11320;DHT22;5715;48.234;14.320;2023-02-24T20:12:29;8.40;99.90
11320;DHT22;5715;48.234;14.320;2023-02-24T20:15:16;8.40;99.90
11320;DHT22;5715;48.234;14.320;2023-02-24T20:18:04;8.30;99.90
11320;DHT22;5715;48.234;14.320;2023-02-24T20:20:58;8.40;99.90
11320;DHT22;5715;48.234;14.320;2023-02-24T20:23:47;8.40;99.90